Tiempo atmosférico en la estación meteorológica de Espolla, Girona (94 m.)



Fecha
DESCASC
Temp. máxima en grados centígrados (hora)
DESCASC
Temp. mínima en grados centígrados (hora)
DESCASC
Temp. media en grados centígrados
DESCASC
Racha de viento máxima en m/sg (hora)
DESCASC
Velocidad máxima media en intervalos de 10 minutos(hora)
DESCASC
Precipitaciones diarias en mm
DESCASC
Precipitaciones de 00:00 a 06:00 en mm
DESCASC
Precipitaciones de 06:00 a 12:00 en mm
DESCASC
Precipitaciones de 12:00 a 18:00 en mm
DESCASC
Precipitaciones de 18:00 a 24:00 en mm
DESCASC
23-06-2019 32.5 (14:40) 16.2 (05:00) 24.4 7.22 (18:00) 4.72 (18:00) 0 0 0 0 0
22-06-2019 27.8 (14:30) 18.9 (23:59) 23.3 15.83 (02:00) 7.78 (02:10) 0 0 0 0 0
21-06-2019 28.1 (16:40) 16 (06:20) 22.1 11.94 (23:59) 6.67 (23:50) 0.4 0 0 0.4 0
20-06-2019 29.1 (16:20) 17.4 (00:00) 23.3 10 (14:30) 6.39 (15:10) 0 0 0 0 0
19-06-2019 -- (--) -- (--) -- -- (--) -- (--) -- 0 -- -- 0
18-06-2019 32.6 (15:30) 15.5 (00:00) 24 10.28 (15:10) 6.67 (14:50) 0 0 0 0 0
17-06-2019 29.4 (13:20) 14.8 (00:00) 22.1 8.89 (15:00) 5.28 (15:10) 0 0 0 0 0
16-06-2019 28.9 (14:50) 13.5 (00:00) 21.2 13.89 (00:10) 7.22 (00:10) 0 0 0 0 0
15-06-2019 25.4 (16:50) 14.3 (00:00) 19.8 16.94 (21:40) 9.17 (22:00) 0 0 0 0 0
14-06-2019 27.6 (18:00) 13.2 (00:00) 20.4 13.33 (13:00) 7.78 (12:40) 2.2 0.4 1.8 0 0
13-06-2019 23 (13:30) 10.5 (00:00) 16.8 9.44 (15:40) 6.39 (16:30) 0 0 0 0 0
12-06-2019 20.7 (17:00) 7.1 (00:00) 13.9 9.72 (14:10) 6.11 (14:20) 0.2 0 0.2 0 0
11-06-2019 18.3 (00:10) 12.2 (00:00) 15.2 9.44 (00:20) 5 (00:20) 14.6 0 2.6 10 2
10-06-2019 27.5 (12:50) 17.9 (00:00) 22.7 18.33 (07:50) 9.72 (07:40) 0 0 0 0 0
09-06-2019 25.9 (13:20) 16.4 (00:00) 21.1 10.83 (23:10) 5.28 (14:20) 0 0 0 0 0
08-06-2019 25.6 (17:10) 10.9 (00:00) 18.3 10.56 (00:20) 6.11 (13:50) 0 0 0 0 0
07-06-2019 26.4 (14:40) 12 (00:00) 19.2 12.5 (16:50) 7.78 (16:40) 0 0 0 0 0
06-06-2019 22.1 (13:10) 10.9 (00:00) 16.5 14.17 (00:10) 7.22 (00:10) 0 0 0 0 0
05-06-2019 25.5 (14:30) 12.4 (00:00) 18.9 18.61 (22:30) 10.28 (22:20) 0 0 0 0 0
04-06-2019 30.9 (15:30) 13.9 (00:00) 22.4 11.39 (16:00) 6.94 (15:50) 0 0 0 0 0
03-06-2019 26.4 (18:20) 14.6 (00:00) 20.5 6.39 (13:30) 4.17 (13:30) 0 0 0 0 0
02-06-2019 29.5 (17:30) 13.2 (00:00) 21.3 6.11 (13:40) 3.61 (17:00) 0 0 0 0 0
01-06-2019 27.3 (15:50) 14.1 (00:00) 20.7 8.33 (13:30) 4.44 (15:10) 0 0 0 0 0
31-05-2019 26.8 (14:50) 16.4 (00:00) 21.6 8.33 (15:10) 5.28 (15:20) 0 0 0 0 0
30-05-2019 26.9 (16:30) 16.2 (00:00) 21.6 15.83 (06:00) 9.44 (06:00) 0 0 0 0 0
29-05-2019 22.5 (16:10) 14.1 (00:00) 18.3 23.61 (05:00) 12.78 (17:10) 0 0 0 0 0
28-05-2019 22.6 (13:40) 15.4 (00:00) 19 22.78 (23:30) 12.78 (23:10) 0 0 0 0 0

Gráficas

Temp. máximas Temp. mínimas Temp. medias Precipitaciones Rachas de viento máximas Velocidades máximas media en intervalos de 10 minutos

Datos horarios

Fecha y hora oficial Temperatura (ºC) Velocidad del viento (km/h) Dirección del viento Racha (km/h) Dirección de racha Precipitación (mm) Presión (hPa) Tendencia (hPa) Humedad (%)
2019-06-26 23:00:00 23.2 3 Norte 11 Nordeste 0 -- -- 55
2019-06-26 22:00:00 25.4 4 Nordeste 7 Nordeste 0 -- -- 52
2019-06-26 21:00:00 28.6 5 Sudoeste 10 Sudoeste 0 -- -- 47
2019-06-26 20:00:00 30.9 6 Sudoeste 18 Sur 0 -- -- 39
2019-06-26 19:00:00 32.1 10 Sur 23 Sur 0 -- -- 35
2019-06-26 18:00:00 33.2 17 Sur 28 Sudeste 0 -- -- 33
2019-06-26 17:00:00 34 17 Sur 27 Sur 0 -- -- 31
2019-06-26 16:00:00 34.5 14 Sudoeste 28 Sudoeste 0 -- -- 31
2019-06-26 15:00:00 35.3 14 Sudoeste 23 Sur 0 -- -- 35
2019-06-26 14:00:00 34.8 10 Sur 21 Sur 0 -- -- 31
2019-06-26 13:00:00 33.5 9 Sur 21 Sur 0 -- -- 34
2019-06-26 12:00:00 32.6 11 Sur 18 Sudoeste 0 -- -- 34
2019-06-26 11:00:00 31.4 9 Sudoeste 16 Sudoeste 0 -- -- 39
2019-06-26 10:00:00 30.7 6 Sudoeste 10 Sur 0 -- -- 39
2019-06-26 09:00:00 28.4 3 Sudeste 6 Nordeste 0 -- -- 45
2019-06-26 08:00:00 23.3 3 Norte 11 Nordeste 0 -- -- 55
2019-06-26 07:00:00 19.7 4 Nordeste 11 Nordeste 0 -- -- 62
2019-06-26 06:00:00 18.5 5 Nordeste 10 Nordeste 0 -- -- 65
2019-06-26 05:00:00 18.6 6 Norte 8 Norte 0 -- -- 66
2019-06-26 04:00:00 18 2 Nordeste 8 Nordeste 0 -- -- 73
2019-06-26 03:00:00 18.6 0 Calma 12 Nordeste 0 -- -- 74
2019-06-26 02:00:00 18.7 3 Nordeste 6 Nordeste 0 -- -- 77
2019-06-26 01:00:00 19.5 4 Nordeste 7 Norte 0 -- -- 75
2019-06-26 00:00:00 19.9 0 Calma 5 Nordeste 0 -- -- 74
2019-06-25 23:00:00 21.7 0 Calma 6 Este 0 -- -- 67
2019-06-25 22:00:00 24 0 Calma 6 Norte 0 -- -- 62
2019-06-25 21:00:00 26.7 3 Sudeste 15 Sudoeste 0 -- -- 55
2019-06-25 20:00:00 27.9 9 Sur 21 Sudeste 0 -- -- 51
2019-06-25 19:00:00 29.2 12 Sur 25 Sur 0 -- -- 48
2019-06-25 18:00:00 29.6 15 Sudeste 30 Sudeste 0 -- -- 48
2019-06-25 17:00:00 28.9 16 Sudeste 32 Sudeste 0 -- -- 54
2019-06-25 16:00:00 31 17 Sur 30 Sur 0 -- -- 39
2019-06-25 15:00:00 31.7 14 Sur 28 Sur 0 -- -- 30
2019-06-25 14:00:00 31.4 17 Sur 28 Sur 0 -- -- 32
2019-06-25 13:00:00 31.4 13 Sur 21 Sur 0 -- -- 38
2019-06-25 12:00:00 30.3 9 Sudoeste 18 Oeste 0 -- -- 40
2019-06-25 11:00:00 28.5 6 Sudoeste 13 Oeste 0 -- -- 45
2019-06-25 10:00:00 27.1 5 Sur 15 Sudeste 0 -- -- 51
2019-06-25 09:00:00 25.4 6 Sudeste 11 Este 0 -- -- 55
2019-06-25 08:00:00 21.9 5 Sur 13 Nordeste 0 -- -- 64
2019-06-25 07:00:00 20 10 Nordeste 16 Nordeste 0 -- -- 66
2019-06-25 06:00:00 19.7 12 Nordeste 17 Nordeste 0 -- -- 68
2019-06-25 05:00:00 18.5 4 Nordeste 14 Nordeste 0 -- -- 76
2019-06-25 04:00:00 18.7 7 Nordeste 11 Nordeste 0 -- -- 74
2019-06-25 03:00:00 18.1 6 Nordeste 9 Nordeste 0 -- -- 79
2019-06-25 02:00:00 18.1 7 Nordeste 12 Nordeste 0 -- -- 85
2019-06-25 01:00:00 18.3 9 Nordeste 13 Nordeste 0 -- -- 86
2019-06-25 00:00:00 18.7 7 Nordeste 12 Nordeste 0 -- -- 84
2019-06-24 23:00:00 19.6 5 Nordeste 9 Nordeste 0 -- -- 85
2019-06-24 22:00:00 20.9 6 Este 10 Sur 0 -- -- 82
2019-06-24 21:00:00 22.4 3 Sur 16 Sur 0 -- -- 76
2019-06-24 20:00:00 23.6 8 Sur 19 Sur 0 -- -- 69
2019-06-24 19:00:00 25.6 13 Sur 30 Sur 0 -- -- 53
2019-06-24 18:00:00 28.1 18 Sur 29 Sudeste 0 -- -- 41
2019-06-24 17:00:00 30.3 15 Sur 29 Sur 0 -- -- 22
2019-06-24 16:00:00 30.6 17 Sur 30 Sur 0 -- -- 30
2019-06-24 15:00:00 29.1 19 Sur 30 Sur 0 -- -- 39
2019-06-24 14:00:00 28.2 16 Sur 26 Sudeste 0 -- -- 44
2019-06-24 13:00:00 27.9 14 Sudoeste 26 Sudoeste 0 -- -- 45
2019-06-24 12:00:00 26.5 13 Sur 24 Sur 0 -- -- 49
2019-06-24 11:00:00 25.3 13 Sur 21 Sudoeste 0 -- -- 56
2019-06-24 10:00:00 23.7 6 Sur 15 Sur 0 -- -- 64
2019-06-24 09:00:00 23 7 Sudeste 12 Sur 0 -- -- 65
2019-06-24 08:00:00 20.3 5 Nordeste 10 Nordeste 0 -- -- 77
2019-06-24 07:00:00 17 3 Nordeste 8 Nordeste 0 -- -- 89
2019-06-24 06:00:00 16.7 3 Nordeste 7 Nordeste 0 -- -- 88
2019-06-24 05:00:00 17.6 2 Nordeste 10 Nordeste 0 -- -- 84
2019-06-24 04:00:00 17.9 6 Nordeste 11 Nordeste 0 -- -- 83
2019-06-24 03:00:00 18.2 5 Nordeste 10 Nordeste 0 -- -- 83
2019-06-24 02:00:00 18.9 5 Norte 6 Norte 0 -- -- 81
2019-06-24 01:00:00 20 0 Calma 11 Nordeste 0 -- -- 77
2019-06-24 00:00:00 20.6 2 Nordeste 7 Nordeste 0 -- -- 75
2019-06-23 23:00:00 21.7 0 Calma 5 Norte 0 -- -- 73
2019-06-23 22:00:00 23.4 3 Sudoeste 9 Sur 0 -- -- 68
2019-06-23 21:00:00 25.6 5 Sudoeste 13 Sudoeste 0 -- -- 60
2019-06-23 20:00:00 28.5 8 Sudoeste 18 Nordeste 0 -- -- 51
2019-06-23 19:00:00 30 10 Nordeste 22 Norte 0 -- -- 46
2019-06-23 18:00:00 30.5 17 Nordeste 26 Norte 0 -- -- 47
2019-06-23 17:00:00 31.5 7 Sudeste 21 Sur 0 -- -- 43
2019-06-23 16:00:00 31.1 13 Sur 24 Sur 0 -- -- 43
2019-06-23 15:00:00 32.5 12 Sur 23 Sur 0 -- -- 40
2019-06-23 14:00:00 31.6 7 Este 21 Sudeste 0 -- -- 41
2019-06-23 13:00:00 30.3 8 Sur 18 Sudoeste 0 -- -- 45
2019-06-23 12:00:00 28.4 6 Sur 21 Sur 0 -- -- 49
2019-06-23 11:00:00 26.6 6 Sudoeste 12 Sur 0 -- -- 54
2019-06-23 10:00:00 24.5 4 Sur 10 Sur 0 -- -- 61
2019-06-23 09:00:00 22.5 5 Sur 8 Sur 0 -- -- 68
2019-06-23 08:00:00 19.5 0 Calma 12 Nordeste 0 -- -- 76
2019-06-23 07:00:00 17.5 4 Nordeste 12 Norte 0 -- -- 82
2019-06-23 06:00:00 16.7 6 Norte 15 Nordeste 0 -- -- 83
2019-06-23 05:00:00 16.2 5 Norte 10 Nordeste 0 -- -- 86
2019-06-23 04:00:00 17 0 Calma 8 Norte 0 -- -- 82
2019-06-23 03:00:00 17.7 3 Nordeste 13 Nordeste 0 -- -- 79
2019-06-23 02:00:00 17.8 3 Nordeste 10 Nordeste 0 -- -- 80
2019-06-23 01:00:00 18.4 5 Nordeste 12 Nordeste 0 -- -- 80
2019-06-23 00:00:00 18.9 3 Nordeste 11 Nordeste 0 -- -- 78
2019-06-22 23:00:00 20.2 4 Nordeste 12 Nordeste 0 -- -- 74
2019-06-22 22:00:00 22 4 Nordeste 8 Este 0 -- -- 67
2019-06-22 21:00:00 24 4 Este 15 Sur 0 -- -- 61
2019-06-22 20:00:00 25.6 9 Sur 15 Sur 0 -- -- 57
2019-06-22 19:00:00 26.1 9 Sur 18 Sur 0 -- -- 50
2019-06-22 18:00:00 25.6 11 Sur 26 Sur 0 -- -- 51
2019-06-22 17:00:00 26.2 14 Sur 25 Sur 0 -- -- 49
2019-06-22 16:00:00 26.6 15 Sur 26 Sur 0 -- -- 47
2019-06-22 15:00:00 26.9 14 Sur 34 Sudoeste 0 -- -- 47
2019-06-22 14:00:00 27.1 15 Sur 27 Sudoeste 0 -- -- 45
2019-06-22 13:00:00 26.1 15 Sur 25 Sur 0 -- -- 48
2019-06-22 12:00:00 26.4 9 Sudoeste 22 Sur 0 -- -- 47
2019-06-22 11:00:00 25.6 4 Oeste 17 Sudoeste 0 -- -- 47
2019-06-22 10:00:00 24.7 7 Sur 15 Sudoeste 0 -- -- 49
2019-06-22 09:00:00 22.6 5 Sudoeste 7 Sudoeste 0 -- -- 53
2019-06-22 08:00:00 20.9 4 Sur 6 Sur 0 -- -- 59
2019-06-22 07:00:00 19.2 0 Calma 8 Sur 0 -- -- 64
2019-06-22 06:00:00 20.3 3 Sudeste 22 Norte 0 -- -- 58
2019-06-22 05:00:00 21.1 6 Norte 32 Norte 0 -- -- 53
2019-06-22 04:00:00 20.9 15 Norte 45 Norte 0 -- -- 54
2019-06-22 03:00:00 20.3 25 Norte 51 Norte 0 -- -- 56
2019-06-22 02:00:00 20.5 26 Norte 57 Norte 0 -- -- 55
2019-06-22 01:00:00 20.7 21 Norte 45 Norte 0 -- -- 54
2019-06-22 00:00:00 20.6 20 Norte 43 Norte 0 -- -- 56
2019-06-21 23:00:00 20.6 5 Sur 18 Nordeste 0 -- -- 58
2019-06-21 22:00:00 21.9 9 Nordeste 25 Norte 0 -- -- 54
2019-06-21 21:00:00 23.1 12 Nordeste 24 Norte 0 -- -- 52
2019-06-21 20:00:00 24.6 5 Norte 22 Norte 0 -- -- 50
2019-06-21 19:00:00 27.4 7 Norte 23 Noroeste 0 -- -- 46
2019-06-21 18:00:00 26.3 12 Norte 30 Noroeste 0 -- -- 47
2019-06-21 17:00:00 27.6 14 Noroeste 32 Noroeste 0 -- -- 44
2019-06-21 16:00:00 27.6 21 Noroeste 34 Noroeste 0 -- -- 46
2019-06-21 15:00:00 26.3 5 Este 18 Nordeste 0 -- -- 52
2019-06-21 14:00:00 22.3 14 Nordeste 24 Nordeste 0.4 -- -- 70
2019-06-21 13:00:00 23.9 8 Norte 21 Noroeste 0 -- -- 60
2019-06-21 12:00:00 25.8 11 Norte 20 Norte 0 -- -- 49
2019-06-21 11:00:00 26.6 8 Norte 15 Nordeste 0 -- -- 47
2019-06-21 10:00:00 24.4 3 Sudeste 8 Oeste 0 -- -- 56
2019-06-21 09:00:00 21.7 2 Sur 4 Sur 0 -- -- 69
2019-06-21 08:00:00 18 0 Calma 8 Nordeste 0 -- -- 82
2019-06-21 07:00:00 16.4 3 Nordeste 9 Nordeste 0 -- -- 87
2019-06-21 06:00:00 16.1 0 Calma 7 Norte 0 -- -- 87
2019-06-21 05:00:00 16.7 3 Nordeste 6 Este 0 -- -- 87
2019-06-21 04:00:00 17 2 Sudeste 8 Norte 0 -- -- 84
2019-06-21 03:00:00 18 2 Norte 9 Norte 0 -- -- 81
2019-06-21 02:00:00 17.4 2 Norte 8 Nordeste 0 -- -- 81
2019-06-21 01:00:00 18.6 0 Calma 9 Sur 0 -- -- 76
2019-06-21 00:00:00 19.9 5 Sur 10 Este 0 -- -- 71
2019-06-20 23:00:00 21.3 0 Calma 9 Norte 0 -- -- 67
2019-06-20 22:00:00 21.9 9 Nordeste 16 Nordeste 0 -- -- 64
2019-06-20 21:00:00 23.6 2 Norte 14 Este 0 -- -- 59
2019-06-20 20:00:00 23.8 10 Este 36 Noroeste 0 -- -- 60
2019-06-20 19:00:00 24.6 5 Nordeste 18 Este 0 -- -- 56
2019-06-20 18:00:00 25.6 11 Nordeste 26 Nordeste 0 -- -- 52
2019-06-20 17:00:00 27.1 15 Este 29 Nordeste 0 -- -- 48
2019-06-20 16:00:00 28.9 15 Nordeste 35 Nordeste 0 -- -- 44
2019-06-20 15:00:00 28.9 19 Nordeste 36 Este 0 -- -- 46
2019-06-20 14:00:00 28.5 18 Nordeste 27 Nordeste 0 -- -- 51
2019-06-20 13:00:00 28.6 12 Este 25 Este 0 -- -- 48
2019-06-20 12:00:00 27.2 10 Este 27 Nordeste 0 -- -- 51
2019-06-20 11:00:00 25.4 5 Oeste 14 Sur 0 -- -- 56
2019-06-20 10:00:00 23.7 5 Sudoeste 14 Sudoeste 0 -- -- 62
2019-06-20 09:00:00 21.9 3 Sur 8 Sudoeste 0 -- -- 73
2019-06-20 08:00:00 19.5 3 Norte 9 Sudeste 0 -- -- 83
2019-06-20 07:00:00 17.7 4 Norte 8 Este 0 -- -- 88
2019-06-20 06:00:00 17.6 3 Sur 7 Este 0 -- -- 87
2019-06-20 05:00:00 17.4 0 Calma 6 Oeste 0 -- -- 84
2019-06-20 04:00:00 17.5 2 Este 6 Este 0 -- -- 82
2019-06-20 03:00:00 18.2 2 Este 8 Nordeste 0 -- -- 78
2019-06-20 02:00:00 18.3 5 Norte 7 Norte 0 -- -- 81
2019-06-20 01:00:00 19 0 Calma 9 Norte 0 -- -- 77
2019-06-20 00:00:00 19.9 4 Norte 13 Nordeste 0 -- -- 73
2019-06-19 23:00:00 20.3 3 Nordeste 8 Norte 0 -- -- 73
2019-06-19 22:00:00 21.6 2 Nordeste 4 Norte 0 -- -- 68
2019-06-19 21:00:00 23 3 Sur 11 Sur 0 -- -- 65
2019-06-19 20:00:00 24.2 10 Sur 17 Sur 0 -- -- 60
2019-06-19 19:00:00 27 11 Sur 18 Sur 0 -- -- 50
2019-06-19 18:00:00 27 9 Sur 19 Sur 0 -- -- 44
2019-06-19 17:00:00 27.3 10 Sur 21 Sur 0 -- -- 45
2019-06-19 16:00:00 28.1 11 Sudeste 26 Este 0 -- -- 42
2019-06-19 15:00:00 28.4 13 Sur -- -- -- -- -- 45
2019-06-19 14:00:00 27.8 13 Sur 24 Sudoeste 0 -- -- 46
2019-06-19 13:00:00 26.9 12 Sudoeste 24 Sur 0 -- -- 49
2019-06-19 12:00:00 -- -- -- -- -- -- -- -- --
2019-06-19 11:00:00 25.4 8 Sur 16 Sur 0 -- -- 50
2019-06-19 10:00:00 24.7 8 Sur 16 Sudoeste 0 -- -- 45
2019-06-19 09:00:00 23 5 Oeste 8 Sudoeste 0 -- -- 50
2019-06-19 08:00:00 20.5 9 Nordeste 19 Nordeste 0 -- -- 58
2019-06-19 07:00:00 16.3 10 Nordeste 16 Nordeste 0 -- -- 56
2019-06-19 06:00:00 15.1 7 Nordeste 18 Nordeste 0 -- -- 60
2019-06-19 05:00:00 15.2 9 Nordeste 16 Nordeste 0 -- -- 62
2019-06-19 04:00:00 15.6 7 Nordeste 15 Nordeste 0 -- -- 63
2019-06-19 03:00:00 16.6 12 Nordeste 15 Nordeste 0 -- -- 61
2019-06-19 02:00:00 16.8 4 Nordeste 8 Nordeste 0 -- -- 62
2019-06-19 01:00:00 18.7 3 Este 12 Sudeste 0 -- -- 53
2019-06-19 00:00:00 20.6 2 Sudeste 13 Sudeste 0 -- -- 46
2019-06-18 23:00:00 22.1 4 Nordeste 11 Nordeste 0 -- -- 42
2019-06-18 22:00:00 24.1 5 Sudeste 13 Sudeste 0 -- -- 37
2019-06-18 21:00:00 27.2 8 Sur 23 Sur 0 -- -- 31
2019-06-18 20:00:00 29.4 12 Sur 31 Sur 0 -- -- 29
2019-06-18 19:00:00 30.1 18 Sur 32 Sur 0 -- -- 29
2019-06-18 18:00:00 31 21 Sur 34 Sur 0 -- -- 30
2019-06-18 17:00:00 31.4 15 Sudoeste 36 Sur 0 -- -- 31
2019-06-18 16:00:00 32.6 20 Sur 37 Sudeste 0 -- -- 29
2019-06-18 15:00:00 32 23 Sur 35 Sur 0 -- -- 29
2019-06-18 14:00:00 31.7 15 Sur 26 Sur 0 -- -- 29
2019-06-18 13:00:00 29.6 12 Sur 22 Sudeste 0 -- -- 37
2019-06-18 12:00:00 27.3 7 Sudoeste 17 Sudeste 0 -- -- 43
2019-06-18 11:00:00 25.7 8 Sur 20 Sudeste 0 -- -- 45
2019-06-18 10:00:00 24.8 5 Sudeste 14 Sur 0 -- -- 52
2019-06-18 09:00:00 21.3 0 Calma 9 Sudoeste 0 -- -- 63
2019-06-18 08:00:00 19.7 3 Sudoeste 6 Oeste 0 -- -- 65
2019-06-18 07:00:00 16.2 4 Nordeste 13 Nordeste 0 -- -- 71
2019-06-18 06:00:00 15.5 4 Nordeste 14 Nordeste 0 -- -- 72
2019-06-18 05:00:00 15.9 0 Calma 11 Nordeste 0 -- -- 71
2019-06-18 04:00:00 16.2 3 Nordeste 11 Nordeste 0 -- -- 68
2019-06-18 03:00:00 16.7 4 Norte 10 Nordeste 0 -- -- 67
2019-06-18 02:00:00 17.8 4 Norte 9 Nordeste 0 -- -- 62
2019-06-18 01:00:00 17.8 4 Norte 10 Este 0 -- -- 63
2019-06-18 00:00:00 18.2 5 Nordeste 9 Nordeste 0 -- -- 64
2019-06-17 23:00:00 18.8 5 Nordeste 8 Norte 0 -- -- 63
2019-06-17 22:00:00 20.5 5 Norte 8 Norte 0 -- -- 57
2019-06-17 21:00:00 23.8 4 Sudoeste 8 Sur 0 -- -- 48
2019-06-17 20:00:00 24.9 5 Sur 19 Sudeste 0 -- -- 41
2019-06-17 19:00:00 25.1 15 Sur 23 Sur 0 -- -- 42
2019-06-17 18:00:00 25.3 14 Sur 27 Sur 0 -- -- 43
2019-06-17 17:00:00 26.6 19 Sur 28 Sur 0 -- -- 41
2019-06-17 16:00:00 27.6 15 Sur 30 Sur 0 -- -- 41
2019-06-17 15:00:00 27.7 19 Sur 32 Sur 0 -- -- 41
2019-06-17 14:00:00 29.4 16 Sur 26 Sur 0 -- -- 37
2019-06-17 13:00:00 29.3 7 Sudeste 17 Sudoeste 0 -- -- 37
2019-06-17 12:00:00 27.9 8 Sudoeste 16 Sudoeste 0 -- -- 37
2019-06-17 11:00:00 26.2 7 Sudoeste 17 Sur 0 -- -- 41
2019-06-17 10:00:00 25.3 6 Sur 11 Sudoeste 0 -- -- 41
2019-06-17 09:00:00 23.6 5 Sur 8 Sur 0 -- -- 47
2019-06-17 08:00:00 20.5 3 Nordeste 10 Nordeste 0 -- -- 52
2019-06-17 07:00:00 15.7 4 Norte 11 Nordeste 0 -- -- 63
2019-06-17 06:00:00 15.4 7 Nordeste 13 Nordeste 0 -- -- 61
2019-06-17 05:00:00 15.1 4 Nordeste 9 Nordeste 0 -- -- 60
2019-06-17 04:00:00 16 2 Nordeste 9 Nordeste 0 -- -- 64
2019-06-17 03:00:00 16.6 2 Sudoeste 18 Nordeste 0 -- -- 59
2019-06-17 02:00:00 16.2 8 Nordeste 14 Norte 0 -- -- 64
2019-06-17 01:00:00 17.3 4 Norte 15 Nordeste 0 -- -- 65
2019-06-17 00:00:00 18 5 Nordeste 13 Nordeste 0 -- -- 65
2019-06-16 23:00:00 18.6 4 Norte 10 Norte 0 -- -- 64
2019-06-16 22:00:00 20.4 4 Norte 7 Nordeste 0 -- -- 58
2019-06-16 21:00:00 23.3 2 Norte 6 Sur 0 -- -- 49
2019-06-16 20:00:00 23.8 4 Sur 15 Sudoeste 0 -- -- 43
2019-06-16 19:00:00 25.2 10 Sur 20 Sudoeste 0 -- -- 41
2019-06-16 18:00:00 26 11 Sur 24 Sur 0 -- -- 40
2019-06-16 17:00:00 25.8 15 Sur 31 Sur 0 -- -- 39
2019-06-16 16:00:00 27.5 20 Sur 31 Sur 0 -- -- 37
2019-06-16 15:00:00 28.6 9 Sudoeste 17 Oeste 0 -- -- 35
2019-06-16 14:00:00 27.8 9 Oeste 22 Noroeste 0 -- -- 35
2019-06-16 13:00:00 26.5 13 Norte 30 Nordeste 0 -- -- 34
2019-06-16 12:00:00 25.5 11 Norte 26 Norte 0 -- -- 35
2019-06-16 11:00:00 24.2 12 Noroeste 21 Noroeste 0 -- -- 39
2019-06-16 10:00:00 22.7 9 Norte 30 Norte 0 -- -- 43
2019-06-16 09:00:00 21.2 17 Nordeste 38 Norte 0 -- -- 47
2019-06-16 08:00:00 19.6 18 Nordeste 33 Norte 0 -- -- 51
2019-06-16 07:00:00 14.3 3 Sur 9 Sudoeste 0 -- -- 71
2019-06-16 06:00:00 14.5 4 Norte 8 Noroeste 0 -- -- 68
2019-06-16 05:00:00 16.7 3 Sur 17 Sudeste 0 -- -- 59
2019-06-16 04:00:00 17.8 5 Sur 25 Sudeste 0 -- -- 54
2019-06-16 03:00:00 18.4 6 Sudoeste 22 Norte 0 -- -- 53
2019-06-16 02:00:00 19.7 9 Nordeste 40 Norte 0 -- -- 47
2019-06-16 01:00:00 20.1 17 Norte 50 Norte 0 -- -- 47
2019-06-16 00:00:00 20.7 24 Norte 53 Norte 0 -- -- 44
2019-06-15 23:00:00 20.1 29 Norte 58 Noroeste 0 -- -- 48
2019-06-15 22:00:00 19.5 33 Norte 61 Norte 0 -- -- 53
2019-06-15 21:00:00 19.6 28 Norte 52 Norte 0 -- -- 54
2019-06-15 20:00:00 21.7 16 Norte 36 Norte 0 -- -- 49
2019-06-15 19:00:00 23.5 14 Norte 30 Norte 0 -- -- 47
2019-06-15 18:00:00 24.9 13 Norte 30 Norte 0 -- -- 47
2019-06-15 17:00:00 25.4 16 Norte 30 Noroeste 0 -- -- 47
2019-06-15 16:00:00 24.5 9 Nordeste 36 Sur 0 -- -- 51
2019-06-15 15:00:00 24.5 10 Sur 18 Oeste 0 -- -- 55
2019-06-15 14:00:00 23.8 7 Norte 18 Sudeste 0 -- -- 57
2019-06-15 13:00:00 23 7 Este 16 Sudoeste 0 -- -- 59
2019-06-15 12:00:00 23.5 7 Sudoeste 16 Sur 0 -- -- 59
2019-06-15 11:00:00 21.9 8 Sur 14 Sur 0 -- -- 64
2019-06-15 10:00:00 21.4 8 Sudoeste 13 Sur 0 -- -- 66
2019-06-15 09:00:00 19.8 6 Sur 12 Sur 0 -- -- 72
2019-06-15 08:00:00 18.3 3 Sudeste 6 Este 0 -- -- 77
2019-06-15 07:00:00 15.9 5 Nordeste 14 Nordeste 0 -- -- 84
2019-06-15 06:00:00 16.1 10 Nordeste 21 Nordeste 0 -- -- 83
2019-06-15 05:00:00 14.4 6 Norte 11 Norte 0 -- -- 86
2019-06-15 04:00:00 15 2 Oeste 10 Nordeste 0 -- -- 84
2019-06-15 03:00:00 15.8 5 Nordeste 15 Nordeste 0 -- -- 80
2019-06-15 02:00:00 15.7 6 Nordeste 12 Norte 0 -- -- 81
2019-06-15 01:00:00 16.3 9 Nordeste 14 Nordeste 0 -- -- 80
2019-06-15 00:00:00 16.8 6 Nordeste 11 Nordeste 0 -- -- 78
2019-06-14 23:00:00 17.7 4 Norte 8 Norte 0 -- -- 77
2019-06-14 22:00:00 19.5 6 Noroeste 14 Sur 0 -- -- 70
2019-06-14 21:00:00 22.8 10 Sur 17 Sur 0 -- -- 58
2019-06-14 20:00:00 25.1 11 Noroeste 22 Sudoeste 0 -- -- 51
2019-06-14 19:00:00 24.8 9 Sur 23 Sur 0 -- -- 47
2019-06-14 18:00:00 27.6 6 Nordeste 34 Noroeste 0 -- -- 40
2019-06-14 17:00:00 27.1 17 Noroeste 30 Sudeste 0 -- -- 42
2019-06-14 16:00:00 24 21 Norte 35 Nordeste 0 -- -- 48
2019-06-14 15:00:00 23.9 12 Nordeste 29 Nordeste 0 -- -- 45
2019-06-14 14:00:00 24.8 16 Nordeste 35 Nordeste 0 -- -- 42
2019-06-14 13:00:00 23 23 Nordeste 48 Este 0 -- -- 48
2019-06-14 12:00:00 24.4 13 Nordeste 35 Nordeste 0 -- -- 47
2019-06-14 11:00:00 22.5 21 Nordeste 39 Nordeste 0 -- -- 52
2019-06-14 10:00:00 21.2 14 Nordeste 33 Nordeste 0 -- -- 57
2019-06-14 09:00:00 20.5 10 Norte 26 Norte 0 -- -- 65
2019-06-14 08:00:00 18 17 Nordeste 33 Nordeste 1.8 -- -- 72
2019-06-14 07:00:00 18.5 21 Nordeste 33 Nordeste 0 -- -- 61
2019-06-14 06:00:00 16.7 9 Nordeste 24 Norte 0.2 -- -- 68
2019-06-14 05:00:00 14.4 17 Nordeste 29 Nordeste 0.2 -- -- 75
2019-06-14 04:00:00 14.7 12 Nordeste 19 Nordeste 0 -- -- 50
2019-06-14 03:00:00 14.6 5 Nordeste 20 Nordeste 0 -- -- 42
2019-06-14 02:00:00 13.7 10 Nordeste 19 Nordeste 0 -- -- 44
2019-06-14 01:00:00 13.3 7 Nordeste 12 Nordeste 0 -- -- 49
2019-06-14 00:00:00 13.9 6 Nordeste 13 Nordeste 0 -- -- 48
2019-06-13 23:00:00 14.5 7 Nordeste 13 Nordeste 0 -- -- 55
2019-06-13 22:00:00 16.5 3 Nordeste 11 Este 0 -- -- 60
2019-06-13 21:00:00 18.7 4 Este 11 Sudeste 0 -- -- 55
2019-06-13 20:00:00 20.1 8 Sur 14 Sur 0 -- -- 45
2019-06-13 19:00:00 21.1 8 Sur 22 Sur 0 -- -- 43
2019-06-13 18:00:00 20.7 14 Sur 22 Sudeste 0 -- -- 48
2019-06-13 17:00:00 21.2 14 Sur 32 Sur 0 -- -- 45
2019-06-13 16:00:00 22.3 17 Sur 34 Sur 0 -- -- 40
2019-06-13 15:00:00 22.5 21 Sur 33 Sur 0 -- -- 36
2019-06-13 14:00:00 22.9 18 Sur 29 Sur 0 -- -- 40
2019-06-13 13:00:00 22.7 17 Sur 30 Sur 0 -- -- 41
2019-06-13 12:00:00 21.4 15 Sur 24 Sur 0 -- -- 51
2019-06-13 11:00:00 20.7 10 Sur 19 Sur 0 -- -- 60
2019-06-13 10:00:00 18.8 5 Sur 14 Sur 0 -- -- 65
2019-06-13 09:00:00 16.4 6 Sudoeste 10 Sur 0 -- -- 83
2019-06-13 08:00:00 14.5 2 Sur 12 Nordeste 0 -- -- 83
2019-06-13 07:00:00 11 6 Nordeste 9 Nordeste 0 -- -- 92
2019-06-13 06:00:00 10.7 5 Nordeste 10 Nordeste 0 -- -- 91
2019-06-13 05:00:00 11.4 6 Nordeste 14 Nordeste 0 -- -- 90
2019-06-13 04:00:00 11.4 6 Nordeste 9 Nordeste 0 -- -- 92
2019-06-13 03:00:00 12 0 Calma 16 Nordeste 0 -- -- 90
2019-06-13 02:00:00 12.5 6 Nordeste 15 Nordeste 0 -- -- 90
2019-06-13 01:00:00 13.2 4 Nordeste 12 Nordeste 0 -- -- 90
2019-06-13 00:00:00 13.6 4 Nordeste 6 Noroeste 0 -- -- 90
2019-06-12 23:00:00 14.6 0 Calma 9 Nordeste 0 -- -- 88
2019-06-12 22:00:00 15 5 Norte 9 Norte 0 -- -- 84
2019-06-12 21:00:00 16.7 4 Nordeste 14 Este 0 -- -- 77
2019-06-12 20:00:00 18.2 9 Este 15 Este 0 -- -- 70
2019-06-12 19:00:00 19.2 9 Sur 18 Sudeste 0 -- -- 65
2019-06-12 18:00:00 20.4 11 Sudeste 26 Sudeste 0 -- -- 57
2019-06-12 17:00:00 20.7 12 Este 29 Sur 0 -- -- 56
2019-06-12 16:00:00 19.7 17 Sur 30 Sur 0 -- -- 59
2019-06-12 15:00:00 19.1 16 Sur 35 Sur 0 -- -- 58
2019-06-12 14:00:00 19.1 19 Sur 31 Sur 0 -- -- 58
2019-06-12 13:00:00 19 12 Sudoeste 23 Sur 0 -- -- 58
2019-06-12 12:00:00 18.1 9 Sur 22 Sur 0 -- -- 55
2019-06-12 11:00:00 17.2 6 Sudeste 13 Sur 0 -- -- 59
2019-06-12 10:00:00 15.5 7 Sudoeste 12 Sudoeste 0.2 -- -- 64
2019-06-12 09:00:00 14.4 0 Calma 4 Norte 0 -- -- 70
2019-06-12 08:00:00 11.5 0 Calma 8 Nordeste 0 -- -- 78
2019-06-12 07:00:00 7.7 5 Nordeste 8 Nordeste 0 -- -- 92
2019-06-12 06:00:00 7.2 6 Nordeste 12 Nordeste 0 -- -- 91
2019-06-12 05:00:00 7.6 9 Nordeste 15 Nordeste 0 -- -- 91
2019-06-12 04:00:00 7.7 4 Nordeste 13 Nordeste 0 -- -- 92
2019-06-12 03:00:00 8.4 5 Nordeste 11 Nordeste 0 -- -- 92
2019-06-12 02:00:00 8.6 4 Este 9 Este 0 -- -- 89
2019-06-12 01:00:00 10.3 3 Nordeste 12 Sudeste 0 -- -- 84
2019-06-12 00:00:00 12.7 4 Norte 11 Sur 0 -- -- 78
2019-06-11 23:00:00 12.5 3 Norte 30 Norte 0 -- -- 77
2019-06-11 22:00:00 13.4 14 Norte 32 Norte 0 -- -- 64
2019-06-11 21:00:00 12.2 9 Norte 31 Nordeste 1.6 -- -- 76
2019-06-11 20:00:00 13.8 3 Oeste 12 Nordeste 0.4 -- -- 77
2019-06-11 19:00:00 13.5 6 Sur 14 Sur 0 -- -- 86
2019-06-11 18:00:00 13.4 6 Sur 12 Sur 0.8 -- -- 89
2019-06-11 17:00:00 13 9 Sur 13 Sur 0.8 -- -- 87
2019-06-11 16:00:00 12.7 7 Sudoeste 12 Sudoeste 1.2 -- -- 90
2019-06-11 15:00:00 12.6 6 Sur 12 Sur 2 -- -- 89
2019-06-11 14:00:00 12.8 0 Calma 6 Este 2.4 -- -- 84
2019-06-11 13:00:00 12.7 0 Calma 18 Nordeste 2.8 -- -- 87
2019-06-11 12:00:00 12.7 8 Nordeste 18 Nordeste 1.6 -- -- 85
2019-06-11 11:00:00 13.1 5 Este 17 Nordeste 0.8 -- -- 84
2019-06-11 10:00:00 14.5 10 Nordeste 23 Nordeste 0.2 -- -- 73
2019-06-11 09:00:00 14.9 10 Nordeste 17 Nordeste 0 -- -- 74
2019-06-11 08:00:00 15.6 6 Nordeste 11 Nordeste 0 -- -- 65
2019-06-11 07:00:00 15.7 0 Calma 6 Sur 0 -- -- 63
2019-06-11 06:00:00 16.1 2 Norte 10 Nordeste 0 -- -- 59
2019-06-11 05:00:00 16.3 0 Calma 10 Nordeste 0 -- -- 57
2019-06-11 04:00:00 17.1 9 Nordeste 17 Nordeste 0 -- -- 54
2019-06-11 03:00:00 17.6 2 Sur 11 Nordeste 0 -- -- 52
2019-06-11 02:00:00 17.9 5 Sudoeste 19 Noroeste 0 -- -- 49
2019-06-11 01:00:00 18 14 Norte 34 Norte 0 -- -- 49
2019-06-11 00:00:00 18.2 13 Norte 45 Noroeste 0 -- -- 48
2019-06-10 23:00:00 18.2 24 Norte 49 Norte 0 -- -- 48
2019-06-10 22:00:00 17.9 26 Norte 48 Norte 0 -- -- 49
2019-06-10 21:00:00 18.3 19 Norte 54 Noroeste 0 -- -- 52
2019-06-10 20:00:00 18.7 24 Norte 39 Norte 0 -- -- 53
2019-06-10 19:00:00 20.1 18 Norte 43 Norte 0 -- -- 51
2019-06-10 18:00:00 22.3 12 Norte 35 Noroeste 0 -- -- 46
2019-06-10 17:00:00 24.2 16 Norte 27 Norte 0 -- -- 44
2019-06-10 16:00:00 24.3 9 Nordeste 31 Nordeste 0 -- -- 43
2019-06-10 15:00:00 26.7 14 Nordeste 30 Nordeste 0 -- -- 38
2019-06-10 14:00:00 27 17 Nordeste 29 Nordeste 0 -- -- 37
2019-06-10 13:00:00 27.1 12 Nordeste 30 Noroeste 0 -- -- 37
2019-06-10 12:00:00 26.1 17 Norte 37 Noroeste 0 -- -- 39
2019-06-10 11:00:00 25 10 Norte 49 Nordeste 0 -- -- 42
2019-06-10 10:00:00 22.9 22 Norte 56 Norte 0 -- -- 47
2019-06-10 09:00:00 20.8 29 Norte 64 Norte 0 -- -- 52
2019-06-10 08:00:00 20 32 Norte 66 Noroeste 0 -- -- 54
2019-06-10 07:00:00 19.9 30 Norte 52 Norte 0 -- -- 55
2019-06-10 06:00:00 19.9 15 Norte 32 Norte 0 -- -- 55
2019-06-10 05:00:00 20.5 7 Sur 23 Sur 0 -- -- 55
2019-06-10 04:00:00 21.9 13 Sur 42 Norte 0 -- -- 52
2019-06-10 03:00:00 22.6 10 Norte 56 Norte 0 -- -- 49
2019-06-10 02:00:00 22.5 24 Norte 57 Norte 0 -- -- 49
2019-06-10 01:00:00 22.8 22 Norte 43 Norte 0 -- -- 49
2019-06-10 00:00:00 22.6 5 Este 39 Sur 0 -- -- 47
2019-06-09 23:00:00 22.6 5 Sur 25 Nordeste 0 -- -- 50
2019-06-09 22:00:00 20.1 9 Norte 15 Nordeste 0 -- -- 60
2019-06-09 21:00:00 20.4 5 Oeste 19 Sudeste 0 -- -- 61
2019-06-09 20:00:00 20.7 11 Nordeste 25 Sur 0 -- -- 59
2019-06-09 19:00:00 21.1 9 Norte 35 Norte 0 -- -- 55
2019-06-09 18:00:00 20.9 10 Nordeste 30 Nordeste 0 -- -- 54
2019-06-09 17:00:00 21 17 Nordeste 29 Nordeste 0 -- -- 56
2019-06-09 16:00:00 21.3 12 Nordeste 29 Nordeste 0 -- -- 57
2019-06-09 15:00:00 22.2 12 Nordeste 32 Nordeste 0 -- -- 62
2019-06-09 14:00:00 24 17 Nordeste 30 Nordeste 0 -- -- 49
2019-06-09 13:00:00 25.5 13 Este 25 Este 0 -- -- 37
2019-06-09 12:00:00 25.1 10 Sudeste 18 Sudeste 0 -- -- 25
2019-06-09 11:00:00 23.4 5 Sudeste 10 Sudoeste 0 -- -- 32
2019-06-09 10:00:00 21 4 Sudoeste 10 Oeste 0 -- -- 37
2019-06-09 09:00:00 19.1 0 Calma 15 Nordeste 0 -- -- 49
2019-06-09 08:00:00 19.8 10 Nordeste 20 Nordeste 0 -- -- 36
2019-06-09 07:00:00 17 9 Nordeste 22 Nordeste 0 -- -- 46
2019-06-09 06:00:00 16.5 10 Nordeste 20 Nordeste 0 -- -- 55
2019-06-09 05:00:00 17.4 10 Nordeste 18 Nordeste 0 -- -- 46
2019-06-09 04:00:00 17.5 9 Nordeste 15 Nordeste 0 -- -- 46
2019-06-09 03:00:00 17.6 7 Nordeste 12 Nordeste 0 -- -- 45
2019-06-09 02:00:00 18.1 3 Norte 17 Nordeste 0 -- -- 44
2019-06-09 01:00:00 17.7 10 Nordeste 17 Nordeste 0 -- -- 43
2019-06-09 00:00:00 16.9 10 Nordeste 14 Nordeste 0 -- -- 44
2019-06-08 23:00:00 16.8 4 Nordeste 13 Nordeste 0 -- -- 43
2019-06-08 22:00:00 17.7 3 Nordeste 9 Nordeste 0 -- -- 41
2019-06-08 21:00:00 21.5 0 Calma 14 Sudoeste 0 -- -- 32
2019-06-08 20:00:00 23 10 Sudoeste 22 Sudoeste 0 -- -- 27
2019-06-08 19:00:00 24.9 10 Sur 19 Sudoeste 0 -- -- 25
2019-06-08 18:00:00 25.4 13 Sur 25 Sur 0 -- -- 23
2019-06-08 17:00:00 25.3 10 Sur 30 Este 0 -- -- 24
2019-06-08 16:00:00 25.4 17 Sudeste 28 Este 0 -- -- 25
2019-06-08 15:00:00 25.1 15 Este 33 Este 0 -- -- 24
2019-06-08 14:00:00 24.5 20 Nordeste 32 Este 0 -- -- 27
2019-06-08 13:00:00 24.1 18 Nordeste 31 Este 0 -- -- 34
2019-06-08 12:00:00 23.6 18 Este 30 Este 0 -- -- 35
2019-06-08 11:00:00 23 14 Nordeste 31 Este 0 -- -- 36
2019-06-08 10:00:00 21.5 17 Nordeste 26 Nordeste 0 -- -- 36
2019-06-08 09:00:00 19.7 4 Oeste 7 Oeste 0 -- -- 42
2019-06-08 08:00:00 16.9 3 Sudoeste 8 Este 0 -- -- 48
2019-06-08 07:00:00 12.2 8 Norte 10 Norte 0 -- -- 65
2019-06-08 06:00:00 12.5 0 Calma 9 Sudoeste 0 -- -- 63
2019-06-08 05:00:00 15 5 Sur 24 Norte 0 -- -- 54
2019-06-08 04:00:00 16.6 9 Norte 26 Norte 0 -- -- 50
2019-06-08 03:00:00 16.9 14 Norte 35 Norte 0 -- -- 51
2019-06-08 02:00:00 17.2 12 Norte 31 Norte 0 -- -- 51
2019-06-08 01:00:00 18 12 Norte 38 Norte 0 -- -- 50
2019-06-08 00:00:00 18.8 17 Norte 39 Norte 0 -- -- 45
2019-06-07 23:00:00 18.7 8 Norte 26 Norte 0 -- -- 46
2019-06-07 22:00:00 18.7 8 Nordeste 19 Noroeste 0 -- -- 50
2019-06-07 21:00:00 19.8 4 Nordeste 27 Nordeste 0 -- -- 48
2019-06-07 20:00:00 21.2 14 Nordeste 40 Nordeste 0 -- -- 45
2019-06-07 19:00:00 21.9 21 Nordeste 42 Este 0 -- -- 46
2019-06-07 18:00:00 23.6 20 Nordeste 44 Nordeste 0 -- -- 41
2019-06-07 17:00:00 23.8 26 Nordeste 45 Nordeste 0 -- -- 45
2019-06-07 16:00:00 24 19 Este 36 Este 0 -- -- 53
2019-06-07 15:00:00 26.3 22 Sudeste 41 Sur 0 -- -- 53
2019-06-07 14:00:00 25.5 23 Sur 39 Sudeste 0 -- -- 53
2019-06-07 13:00:00 24.2 22 Sur 36 Sudeste 0 -- -- 59
2019-06-07 12:00:00 23.6 21 Sur 33 Sur 0 -- -- 59
2019-06-07 11:00:00 21.6 18 Sur 32 Sur 0 -- -- 69
2019-06-07 10:00:00 19.6 16 Sur 28 Sur 0 -- -- 78
2019-06-07 09:00:00 16.7 5 Sudoeste 10 Sur 0 -- -- 86
2019-06-07 08:00:00 15.1 0 Calma 5 Nordeste 0 -- -- 92
2019-06-07 07:00:00 12.5 0 Calma 6 Este 0 -- -- 95
2019-06-07 06:00:00 12.1 0 Calma 12 Nordeste 0 -- -- 94
2019-06-07 05:00:00 12.3 0 Calma 15 Nordeste 0 -- -- 92
2019-06-07 04:00:00 12.4 5 Norte 11 Nordeste 0 -- -- 92
2019-06-07 03:00:00 13 7 Nordeste 11 Nordeste 0 -- -- 92
2019-06-07 02:00:00 13.4 0 Calma 5 Noroeste 0 -- -- 89
2019-06-07 01:00:00 14.3 3 Norte 7 Nordeste 0 -- -- 87
2019-06-07 00:00:00 15 0 Calma 18 Sur 0 -- -- 83
2019-06-06 23:00:00 15.9 10 Sur 22 Sur 0 -- -- 80
2019-06-06 22:00:00 16.8 14 Sur 29 Sur 0 -- -- 76
2019-06-06 21:00:00 17.8 19 Sur 32 Sur 0 -- -- 72
2019-06-06 20:00:00 19.4 15 Sudeste 30 Sur 0 -- -- 63
2019-06-06 19:00:00 21.8 20 Sur 29 Sur 0 -- -- 51
2019-06-06 18:00:00 20.9 15 Sudeste 27 Sur 0 -- -- 62
2019-06-06 17:00:00 19.3 12 Sudeste 28 Sur 0 -- -- 66
2019-06-06 16:00:00 19.5 15 Sur 30 Sudeste 0 -- -- 64
2019-06-06 15:00:00 20.1 17 Sur 32 Sur 0 -- -- 60
2019-06-06 14:00:00 21.8 20 Sur 32 Sudeste 0 -- -- 56
2019-06-06 13:00:00 22 10 Sur 23 Sudoeste 0 -- -- 48
2019-06-06 12:00:00 20.4 12 Sudeste 23 Sur 0 -- -- 51
2019-06-06 11:00:00 19.3 12 Sur 22 Sudeste 0 -- -- 51
2019-06-06 10:00:00 18.3 12 Sur 20 Sur 0 -- -- 56
2019-06-06 09:00:00 17.4 9 Sur 14 Sur 0 -- -- 56
2019-06-06 08:00:00 14.4 0 Calma 8 Nordeste 0 -- -- 65
2019-06-06 07:00:00 12.1 3 Nordeste 6 Norte 0 -- -- 71
2019-06-06 06:00:00 11.3 4 Nordeste 11 Nordeste 0 -- -- 72
2019-06-06 05:00:00 11.4 0 Calma 7 Norte 0 -- -- 71
2019-06-06 04:00:00 13.3 2 Norte 8 Este 0 -- -- 63
2019-06-06 03:00:00 15.3 3 Sur 11 Sur 0 -- -- 56
2019-06-06 02:00:00 16.5 2 Sudeste 28 Norte 0 -- -- 52
2019-06-06 01:00:00 17.5 17 Norte 51 Norte 0 -- -- 47
2019-06-06 00:00:00 17.2 24 Norte 53 Norte 0 -- -- 48
2019-06-05 23:00:00 17.2 32 Norte 67 Norte 0 -- -- 48
2019-06-05 22:00:00 16.9 32 Norte 62 Norte 0 -- -- 48
2019-06-05 21:00:00 16.9 29 Norte 54 Norte 0 -- -- 49
2019-06-05 20:00:00 17.7 24 Norte 56 Norte 0 -- -- 50
2019-06-05 19:00:00 18.2 28 Norte 64 Norte 0 -- -- 48
2019-06-05 18:00:00 17.7 23 Norte 60 Norte 0 -- -- 52
2019-06-05 17:00:00 19 20 Norte 42 Nordeste 0 -- -- 52
2019-06-05 16:00:00 23.2 13 Nordeste 32 Norte 0 -- -- 53
2019-06-05 15:00:00 24.7 11 Sur 26 Sur 0 -- -- 59
2019-06-05 14:00:00 25 12 Sur 29 Sudeste 0 -- -- 55
2019-06-05 13:00:00 23.7 13 Sur 28 Sur 0 -- -- 59
2019-06-05 12:00:00 23.2 14 Sur 24 Sudeste 0 -- -- 60
2019-06-05 11:00:00 22.3 7 Sudoeste 16 Sur 0 -- -- 60
2019-06-05 10:00:00 20.8 7 Sudoeste 14 Sur 0 -- -- 63
2019-06-05 09:00:00 19.5 5 Sudoeste 11 Oeste 0 -- -- 66
2019-06-05 08:00:00 16.5 2 Sur 4 Sur 0 -- -- 80
2019-06-05 07:00:00 12.8 0 Calma 4 Este -- -- -- 88
2019-06-05 06:00:00 13.6 0 Calma 23 Nordeste 0 -- -- 82
2019-06-05 05:00:00 16.3 13 Nordeste 20 Nordeste 0 -- -- 77
2019-06-05 04:00:00 16.1 11 Nordeste 22 Nordeste 0 -- -- 74
2019-06-05 03:00:00 16.1 15 Nordeste 21 Nordeste 0 -- -- 70
2019-06-05 02:00:00 14.9 5 Nordeste 13 Nordeste 0 -- -- 72
2019-06-05 01:00:00 15.5 6 Nordeste 13 Nordeste 0 -- -- 71
2019-06-05 00:00:00 17.3 8 Nordeste 12 Nordeste 0 -- -- 69
2019-06-04 23:00:00 18.7 4 Nordeste 9 Norte 0 -- -- 66
2019-06-04 22:00:00 20.2 2 Norte 10 Nordeste 0 -- -- 58
2019-06-04 21:00:00 21.6 4 Norte 16 Sudeste 0 -- -- 55
2019-06-04 20:00:00 23.1 13 Sudeste 30 Sur 0 -- -- 53
2019-06-04 19:00:00 24.8 18 Sur 35 Sur 0 -- -- 45
2019-06-04 18:00:00 26 23 Sur 38 Sur 0 -- -- 41
2019-06-04 17:00:00 27.4 20 Sudeste 39 Sur 0 -- -- 36
2019-06-04 16:00:00 29.6 24 Sur 41 Sudeste 0 -- -- 32
2019-06-04 15:00:00 30.6 20 Sudoeste 37 Sudoeste 0 -- -- 28
2019-06-04 14:00:00 29.2 19 Sudoeste 37 Sur 0 -- -- 32
2019-06-04 13:00:00 27.7 12 Sur 21 Sudeste 0 -- -- 39
2019-06-04 12:00:00 25.6 8 Sur 16 Sur 0 -- -- 48
2019-06-04 11:00:00 24.2 6 Sudoeste 19 Sur 0 -- -- 43
2019-06-04 10:00:00 22.1 4 Sur 15 Sur 0 -- -- 44
2019-06-04 09:00:00 20.5 7 Sur 13 Sur 0 -- -- 48
2019-06-04 08:00:00 17.9 6 Nordeste 12 Nordeste 0 -- -- 62
2019-06-04 07:00:00 14 5 Nordeste 15 Nordeste 0 -- -- 75
2019-06-04 06:00:00 14.1 10 Nordeste 15 Nordeste 0 -- -- 75
2019-06-04 05:00:00 14.4 4 Nordeste 15 Nordeste 0 -- -- 74
2019-06-04 04:00:00 15.3 13 Nordeste 18 Nordeste 0 -- -- 71
2019-06-04 03:00:00 16 12 Nordeste 16 Nordeste 0 -- -- 70
2019-06-04 02:00:00 16.4 10 Nordeste 15 Nordeste 0 -- -- 70
2019-06-04 01:00:00 16.9 13 Nordeste 16 Nordeste 0 -- -- 72
2019-06-04 00:00:00 17.7 11 Nordeste 15 Nordeste 0 -- -- 71
2019-06-03 23:00:00 18.1 4 Nordeste 8 Norte 0 -- -- 71
2019-06-03 22:00:00 19.6 4 Norte 10 Nordeste 0 -- -- 69
2019-06-03 21:00:00 23 0 Calma 4 Sudoeste 0 -- -- 63
2019-06-03 20:00:00 24 0 Calma 11 Sudoeste 0 -- -- 57
2019-06-03 19:00:00 23.9 11 Sur 19 Sur 0 -- -- 60
2019-06-03 18:00:00 26 5 Sudoeste 18 Sur 0 -- -- 54
2019-06-03 17:00:00 26 5 Sudeste 14 Oeste 0 -- -- 54
2019-06-03 16:00:00 24.3 9 Sudoeste 20 Sur 0 -- -- 59
2019-06-03 15:00:00 25.8 11 Sur 22 Sur 0 -- -- 54
2019-06-03 14:00:00 24.5 11 Sur 23 Sur 0 -- -- 55
2019-06-03 13:00:00 24.8 10 Sudeste 21 Sur 0 -- -- 51
2019-06-03 12:00:00 24.5 6 Sur 19 Sur 0 -- -- 49
2019-06-03 11:00:00 23 7 Sur 14 Sudoeste 0 -- -- 53
2019-06-03 10:00:00 21.5 5 Sur 14 Sudoeste 0 -- -- 58
2019-06-03 09:00:00 20.4 4 Sur 10 Sudoeste 0 -- -- 62
2019-06-03 08:00:00 18.4 6 Nordeste 14 Nordeste 0 -- -- 73
2019-06-03 07:00:00 15.6 7 Nordeste 15 Nordeste 0 -- -- 85
2019-06-03 06:00:00 15 8 Nordeste 18 Nordeste 0 -- -- 86
2019-06-03 05:00:00 14.9 12 Nordeste 18 Nordeste 0 -- -- 81
2019-06-03 04:00:00 14.7 5 Nordeste 12 Nordeste 0 -- -- 78
2019-06-03 03:00:00 15 5 Nordeste 12 Nordeste 0 -- -- 73
2019-06-03 02:00:00 15.8 3 Nordeste 10 Nordeste 0 -- -- 71
2019-06-03 01:00:00 16.8 0 Calma 13 Nordeste 0 -- -- 69
2019-06-03 00:00:00 17.7 4 Nordeste 12 Este 0 -- -- 67
2019-06-02 23:00:00 19.3 7 Nordeste 12 Nordeste 0 -- -- 66
2019-06-02 22:00:00 21.6 6 Nordeste 9 Nordeste 0 -- -- 57
2019-06-02 21:00:00 24.8 3 Sudeste 11 Sur 0 -- -- 49
2019-06-02 20:00:00 25.8 8 Sudeste 13 Sudeste 0 -- -- 46
2019-06-02 19:00:00 26.6 5 Sudeste 15 Sudeste 0 -- -- 49
2019-06-02 18:00:00 28.6 9 Sur 20 Sur 0 -- -- 44
2019-06-02 17:00:00 29.2 13 Sur 21 Sur 0 -- -- 43
2019-06-02 16:00:00 29 9 Sur 18 Sudoeste 0 -- -- 43
2019-06-02 15:00:00 27.7 9 Sudoeste 20 Sur 0 -- -- 43
2019-06-02 14:00:00 26.8 8 Sur 22 Sur 0 -- -- 45
2019-06-02 13:00:00 25.9 10 Sur 20 Sur 0 -- -- 42
2019-06-02 12:00:00 24.5 7 Sur 18 Sur 0 -- -- 45
2019-06-02 11:00:00 23.2 10 Sur 17 Sur 0 -- -- 49
2019-06-02 10:00:00 22.1 7 Sudoeste 13 Sudoeste 0 -- -- 48
2019-06-02 09:00:00 20.5 2 Sur 6 Sudoeste 0 -- -- 54
2019-06-02 08:00:00 17.7 3 Este 7 Sudeste 0 -- -- 65
2019-06-02 07:00:00 13.8 6 Nordeste 15 Nordeste 0 -- -- 76
2019-06-02 06:00:00 13.6 10 Nordeste 15 Nordeste 0 -- -- 75
2019-06-02 05:00:00 13.2 6 Nordeste 11 Nordeste 0 -- -- 76
2019-06-02 04:00:00 13.7 3 Nordeste 16 Nordeste 0 -- -- 72
2019-06-02 03:00:00 14 8 Nordeste 13 Nordeste 0 -- -- 71
2019-06-02 02:00:00 14.5 6 Nordeste 12 Nordeste 0 -- -- 71
2019-06-02 01:00:00 15.7 6 Nordeste 18 Nordeste 0 -- -- 68
2019-06-02 00:00:00 16.7 10 Nordeste 14 Nordeste 0 -- -- 66
2019-06-01 23:00:00 17.7 6 Nordeste 13 Nordeste 0 -- -- 62
2019-06-01 22:00:00 20.4 3 Nordeste 10 Sur 0 -- -- 55
2019-06-01 21:00:00 23.6 6 Sur 11 Sur 0 -- -- 52
2019-06-01 20:00:00 26.4 6 Sur 11 Sur 0 -- -- 35
2019-06-01 19:00:00 26.9 9 Sur 18 Sudoeste 0 -- -- 35
2019-06-01 18:00:00 27 9 Sur 21 Sur 0 -- -- 27
2019-06-01 17:00:00 26.6 13 Sudoeste 25 Sur 0 -- -- 40
2019-06-01 16:00:00 27 12 Sur 25 Sur 0 -- -- 41
2019-06-01 15:00:00 26.8 13 Sur 28 Sur 0 -- -- 36
2019-06-01 14:00:00 27.2 13 Sur 30 Sur 0 -- -- 39
2019-06-01 13:00:00 26.7 15 Sur 25 Sudoeste 0 -- -- 41
2019-06-01 12:00:00 26.4 8 Sur 19 Sur 0 -- -- 37
2019-06-01 11:00:00 25 9 Sur 15 Sur 0 -- -- 42
2019-06-01 10:00:00 24 4 Sur 9 Sur 0 -- -- 42
2019-06-01 09:00:00 21.7 3 Sur 6 Sur 0 -- -- 47
2019-06-01 08:00:00 18.6 2 Nordeste 12 Nordeste 0 -- -- 56
2019-06-01 07:00:00 15.1 5 Nordeste 17 Nordeste 0 -- -- 63
2019-06-01 06:00:00 14.1 5 Nordeste 12 Nordeste 0 -- -- 64
2019-06-01 05:00:00 14.4 4 Nordeste 15 Nordeste 0 -- -- 60
2019-06-01 04:00:00 15.4 4 Norte 14 Norte 0 -- -- 56
2019-06-01 03:00:00 16.1 6 Nordeste 17 Nordeste 0 -- -- 49
2019-06-01 02:00:00 15.6 4 Nordeste 17 Nordeste 0 -- -- 55
2019-06-01 01:00:00 15.5 4 Norte 13 Nordeste 0 -- -- 62
2019-06-01 00:00:00 16.4 6 Nordeste 12 Nordeste 0 -- -- 64
2019-05-31 23:00:00 17.4 4 Nordeste 14 Nordeste 0 -- -- 64
2019-05-31 22:00:00 18.7 2 Nordeste 9 Nordeste 0 -- -- 63
2019-05-31 21:00:00 22.8 2 Sudoeste 9 Sur 0 -- -- 52
2019-05-31 20:00:00 24.4 8 Sur 15 Sur 0 -- -- 46
2019-05-31 19:00:00 25.5 8 Sudoeste 17 Sur 0 -- -- 41
2019-05-31 18:00:00 25.5 9 Sur 20 Sudeste 0 -- -- 40
2019-05-31 17:00:00 25.3 12 Sudoeste 27 Sur 0 -- -- 41
2019-05-31 16:00:00 25.2 18 Sur 30 Sur 0 -- -- 41
2019-05-31 15:00:00 26.4 16 Sur 28 Sudoeste 0 -- -- 38
2019-05-31 14:00:00 26.1 12 Sur 27 Este 0 -- -- 41
2019-05-31 13:00:00 25.8 14 Sudeste 24 Sudeste 0 -- -- 43
2019-05-31 12:00:00 25.9 12 Sudeste 21 Sur 0 -- -- 40
2019-05-31 11:00:00 25.3 5 Norte 15 Este 0 -- -- 41
2019-05-31 10:00:00 23.7 5 Este 13 Noroeste 0 -- -- 45
2019-05-31 09:00:00 22.2 11 Noroeste 17 Noroeste 0 -- -- 51
2019-05-31 08:00:00 20.3 12 Noroeste 18 Noroeste 0 -- -- 57
2019-05-31 07:00:00 18 8 Norte 19 Noroeste 0 -- -- 63
2019-05-31 06:00:00 17.2 11 Noroeste 17 Noroeste 0 -- -- 65
2019-05-31 05:00:00 17.2 5 Norte 15 Norte 0 -- -- 65
2019-05-31 04:00:00 19.1 8 Norte 24 Noroeste 0 -- -- 59
2019-05-31 03:00:00 19.8 12 Norte 27 Norte 0 -- -- 56
2019-05-31 02:00:00 20.3 15 Norte 30 Norte 0 -- -- 54
2019-05-31 01:00:00 20.9 15 Norte 29 Norte 0 -- -- 50
2019-05-31 00:00:00 21.3 16 Norte 29 Norte 0 -- -- 50
2019-05-30 23:00:00 21.1 11 Norte 27 Norte 0 -- -- 50
2019-05-30 22:00:00 20 3 Norte 21 Norte 0 -- -- 53
2019-05-30 21:00:00 22.4 9 Nordeste 25 Noroeste 0 -- -- 45
2019-05-30 20:00:00 24.7 10 Noroeste 22 Nordeste 0 -- -- 38
2019-05-30 19:00:00 25.8 9 Norte 23 Nordeste 0 -- -- 38
2019-05-30 18:00:00 26.4 14 Norte 41 Norte 0 -- -- 38
2019-05-30 17:00:00 26.7 20 Nordeste 35 Norte 0 -- -- 36
2019-05-30 16:00:00 26.4 17 Norte 50 Nordeste 0 -- -- 37
2019-05-30 15:00:00 25.9 28 Norte 48 Norte 0 -- -- 37
2019-05-30 14:00:00 25.1 24 Nordeste 46 Nordeste 0 -- -- 39
2019-05-30 13:00:00 23.9 22 Nordeste 43 Nordeste 0 -- -- 40
2019-05-30 12:00:00 23.4 14 Norte 39 Nordeste 0 -- -- 41
2019-05-30 11:00:00 22 15 Norte 35 Norte 0 -- -- 43
2019-05-30 10:00:00 20.7 14 Nordeste 30 Nordeste 0 -- -- 46
2019-05-30 09:00:00 19.2 14 Norte 53 Norte 0 -- -- 50
2019-05-30 08:00:00 17.5 21 Nordeste 50 Nordeste 0 -- -- 54
2019-05-30 07:00:00 16.4 31 Norte 53 Norte 0 -- -- 57
2019-05-30 06:00:00 16.3 34 Norte 57 Norte 0 -- -- 57
2019-05-30 05:00:00 16.5 27 Norte 51 Norte 0 -- -- 56
2019-05-30 04:00:00 17 23 Norte 45 Norte 0 -- -- 55
2019-05-30 03:00:00 17.1 18 Norte 38 Norte 0 -- -- 55
2019-05-30 02:00:00 17.2 19 Noroeste 54 Noroeste 0 -- -- 52
2019-05-30 01:00:00 17.5 23 Noroeste 42 Noroeste 0 -- -- 48
2019-05-30 00:00:00 17.6 23 Noroeste 57 Noroeste 0 -- -- 47
2019-05-29 23:00:00 17.7 22 Norte 48 Norte 0 -- -- 49
2019-05-29 22:00:00 18.2 30 Norte 60 Norte 0 -- -- 44
2019-05-29 21:00:00 18.9 34 Norte 60 Noroeste 0 -- -- 43
2019-05-29 20:00:00 20.1 31 Norte 56 Noroeste 0 -- -- 39
2019-05-29 19:00:00 21.2 31 Norte 71 Norte 0 -- -- 35
2019-05-29 18:00:00 21.8 37 Norte 77 Noroeste 0 -- -- 34
2019-05-29 17:00:00 22.1 42 Norte 73 Norte 0 -- -- 33
2019-05-29 16:00:00 22.2 26 Norte 74 Noroeste 0 -- -- 34
2019-05-29 15:00:00 21.6 26 Norte 69 Norte 0 -- -- 35
2019-05-29 14:00:00 20.5 40 Norte 83 Norte 0 -- -- 35
2019-05-29 13:00:00 20.6 26 Norte 74 Noroeste 0 -- -- 34
2019-05-29 12:00:00 20 23 Nordeste 74 Norte 0 -- -- 35
2019-05-29 11:00:00 18.9 27 Norte 72 Norte 0 -- -- 41
2019-05-29 10:00:00 17.9 39 Norte 67 Norte 0 -- -- 42
2019-05-29 09:00:00 16.5 37 Norte 77 Norte 0 -- -- 45
2019-05-29 08:00:00 15.2 31 Norte 55 Norte 0 -- -- 49
2019-05-29 07:00:00 14.8 35 Norte 68 Noroeste 0 -- -- 49
2019-05-29 06:00:00 14.5 32 Norte 54 Norte 0 -- -- 49
2019-05-29 05:00:00 14.5 42 Norte 85 Noroeste 0 -- -- 50
2019-05-29 04:00:00 14.1 33 Norte 58 Norte 0 -- -- 57
2019-05-29 03:00:00 14.6 32 Norte 58 Norte 0 -- -- 55
2019-05-29 02:00:00 14.9 23 Norte 56 Norte 0 -- -- 52
2019-05-29 01:00:00 15.4 29 Norte 58 Norte 0 -- -- 50
2019-05-29 00:00:00 15.4 37 Norte 82 Norte 0 -- -- 51
2019-05-28 23:00:00 16.1 42 Norte 77 Norte 0 -- -- 49
2019-05-28 22:00:00 16 22 Norte 55 Noroeste 0 -- -- 53
2019-05-28 21:00:00 16.9 18 Noroeste 70 Norte 0 -- -- 52
2019-05-28 20:00:00 18.1 27 Norte 59 Norte 0 -- -- 47
2019-05-28 19:00:00 19.9 24 Noroeste 50 Norte 0 -- -- 46
2019-05-28 18:00:00 19.6 29 Norte 56 Norte 0 -- -- 47
2019-05-28 17:00:00 21 26 Norte 65 Norte 0 -- -- 43
2019-05-28 16:00:00 19.8 30 Norte 58 Norte 0 -- -- 42
2019-05-28 15:00:00 20.2 27 Norte 53 Nordeste 0 -- -- 44
2019-05-28 14:00:00 22.3 31 Norte 53 Nordeste 0 -- -- 35
2019-05-28 13:00:00 21.4 26 Norte 50 Norte 0 -- -- 37
2019-05-28 12:00:00 20.1 23 Norte 42 Norte 0 -- -- 39
2019-05-28 11:00:00 20.6 17 Norte 38 Norte 0 -- -- 38
2019-05-28 10:00:00 18.8 24 Norte 44 Noroeste 0 -- -- 42
2019-05-28 09:00:00 18.5 15 Norte 37 Norte 0 -- -- 41
2019-05-28 08:00:00 16.7 13 Sur 41 Norte 0 -- -- 51
2019-05-28 07:00:00 16.1 28 Norte 56 Noroeste 0 -- -- 51
2019-05-28 06:00:00 15.5 29 Norte 64 Norte 0 -- -- 56
2019-05-28 05:00:00 16 31 Norte 54 Norte 0 -- -- 59
2019-05-28 04:00:00 17 26 Norte 45 Norte 0 -- -- 56
2019-05-28 03:00:00 17.5 13 Norte 26 Norte 0 -- -- 61
2019-05-28 02:00:00 18.5 14 Oeste 39 Norte 0 -- -- 59
2019-05-28 01:00:00 19 21 Norte 39 Noroeste 0 -- -- 56
2019-05-28 00:00:00 19.1 20 Norte 44 Norte 0 -- -- 56